Time;durP1;ratioP1;P1;durP2;ratioP2;P2;SDS_P1;SDS_P2;PMS_P1;PMS_P2;Temp;Humidity;BMP_temperature;BMP_pressure;BME280_temperature;BME280_humidity;BME280_pressure;Samples;Min_cycle;Max_cycle;Signal;HPM_P1;HPM_P2
2021/08/24 00:02:12;;;;;;;7.45;3.08;;;17.80;90.60;;;;;;4842005;29;20057;-83
2021/08/24 00:04:38;;;;;;;6.20;3.20;;;17.70;90.60;;;;;;4842792;29;20053;-83
2021/08/24 00:07:04;;;;;;;6.22;2.90;;;17.70;91.00;;;;;;4843682;29;20054;-83
2021/08/24 00:09:32;;;;;;;5.20;2.90;;;17.60;90.90;;;;;;4842106;29;20479;-83
2021/08/24 00:11:58;;;;;;;6.22;3.10;;;17.60;90.90;;;;;;4843120;29;20436;-83
2021/08/24 00:14:23;;;;;;;6.85;3.00;;;17.50;90.60;;;;;;4848322;29;20042;-83
2021/08/24 00:16:49;;;;;;;6.78;3.10;;;17.50;90.70;;;;;;4859478;29;20053;-83
2021/08/24 00:19:15;;;;;;;7.15;3.22;;;17.40;90.90;;;;;;4860977;29;20543;-83
2021/08/24 00:21:41;;;;;;;8.68;3.33;;;17.40;91.10;;;;;;4853189;29;20126;-83
2021/08/24 00:24:08;;;;;;;5.47;2.72;;;17.40;91.20;;;;;;4857163;29;20080;-83
2021/08/24 00:26:34;;;;;;;6.60;3.20;;;17.30;91.10;;;;;;4859710;29;20045;-83
2021/08/24 00:28:59;;;;;;;6.68;3.28;;;17.30;90.90;;;;;;4859689;29;20098;-83
2021/08/24 00:31:25;;;;;;;6.70;3.13;;;17.30;91.10;;;;;;4861398;29;20085;-83
2021/08/24 00:33:51;;;;;;;5.35;3.00;;;17.30;91.20;;;;;;4859554;29;20046;-83
2021/08/24 00:36:19;;;;;;;6.47;3.42;;;17.20;91.10;;;;;;4859094;29;20109;-83
2021/08/24 00:38:45;;;;;;;7.05;3.22;;;17.20;91.30;;;;;;4859480;29;20189;-83
2021/08/24 00:41:11;;;;;;;6.30;3.10;;;17.20;91.00;;;;;;4856045;29;20160;-83
2021/08/24 00:43:39;;;;;;;7.72;3.42;;;17.20;91.20;;;;;;4858634;29;20049;-83
2021/08/24 00:46:27;;;;;;;7.70;3.38;;;17.20;91.50;;;;;;4842628;29;20061;-83
2021/08/24 00:48:54;;;;;;;10.52;3.88;;;17.20;91.70;;;;;;4842106;29;20054;-83
2021/08/24 00:51:22;;;;;;;5.57;3.03;;;17.20;91.10;;;;;;4840621;29;20077;-83
2021/08/24 00:53:49;;;;;;;6.40;2.92;;;17.10;91.40;;;;;;4841668;29;20092;-83
2021/08/24 00:56:14;;;;;;;8.35;3.10;;;17.10;91.40;;;;;;4842316;29;20042;-83
2021/08/24 00:58:40;;;;;;;6.30;3.60;;;17.10;91.60;;;;;;4842871;29;20491;-84
2021/08/24 01:01:06;;;;;;;7.78;3.28;;;17.10;91.70;;;;;;4842449;29;20435;-84
2021/08/24 01:03:37;;;;;;;7.28;3.33;;;17.00;91.30;;;;;;4843778;29;20083;-84
2021/08/24 01:06:44;;;;;;;6.97;3.20;;;17.00;91.50;;;;;;4860502;29;20383;-84
2021/08/24 01:09:42;;;;;;;7.43;3.10;;;16.90;91.10;;;;;;4861442;29;20065;-84
2021/08/24 01:12:24;;;;;;;6.07;3.20;;;16.90;91.30;;;;;;4860210;29;20399;-84
2021/08/24 01:15:07;;;;;;;7.10;3.22;;;16.90;91.50;;;;;;4859683;29;20061;-83
2021/08/24 01:17:44;;;;;;;5.47;2.87;;;16.80;91.70;;;;;;4860302;29;20041;-84
2021/08/24 01:20:44;;;;;;;6.00;3.10;;;16.80;91.70;;;;;;4858121;29;20061;-83
2021/08/24 01:23:31;;;;;;;8.35;3.30;;;16.70;91.40;;;;;;4860002;29;20140;-83
2021/08/24 01:26:03;;;;;;;5.90;3.15;;;16.70;91.40;;;;;;4858203;29;20053;-84
2021/08/24 01:28:34;;;;;;;7.03;3.43;;;16.70;91.80;;;;;;4858866;29;20057;-84
2021/08/24 01:31:27;;;;;;;6.70;3.30;;;16.60;91.20;;;;;;4859979;29;20084;-84
2021/08/24 01:34:07;;;;;;;7.32;3.40;;;16.60;91.20;;;;;;4843515;29;20045;-83
2021/08/24 01:36:39;;;;;;;5.35;2.90;;;16.60;91.50;;;;;;4859171;29;20064;-83
2021/08/24 01:39:15;;;;;;;7.00;3.40;;;16.60;91.60;;;;;;4859103;29;20110;-83
2021/08/24 01:41:58;;;;;;;6.38;3.28;;;16.60;91.80;;;;;;4850632;29;20072;-83
2021/08/24 01:44:25;;;;;;;5.85;3.33;;;16.50;91.40;;;;;;4845024;29;20057;-84
2021/08/24 01:47:04;;;;;;;6.45;3.20;;;16.40;91.70;;;;;;4843640;29;20046;-84
2021/08/24 01:49:38;;;;;;;11.10;4.13;;;16.40;91.60;;;;;;4844158;29;20061;-84
2021/08/24 01:52:09;;;;;;;5.20;3.10;;;16.40;91.30;;;;;;4845586;29;20096;-84
2021/08/24 01:54:40;;;;;;;7.20;3.38;;;16.40;91.60;;;;;;4851709;29;20041;-83
2021/08/24 01:57:10;;;;;;;6.07;3.35;;;16.40;91.90;;;;;;4845562;29;20048;-84
2021/08/24 01:59:45;;;;;;;7.97;3.63;;;16.40;91.70;;;;;;4844252;29;20054;-84
2021/08/24 02:02:16;;;;;;;6.07;3.20;;;16.30;91.60;;;;;;4843981;29;20052;-83
2021/08/24 02:04:50;;;;;;;8.20;3.60;;;16.30;91.80;;;;;;4845897;29;20602;-84
2021/08/24 02:07:20;;;;;;;8.27;3.50;;;16.30;92.10;;;;;;4844481;29;20137;-83
2021/08/24 02:09:53;;;;;;;5.78;3.20;;;16.30;91.50;;;;;;4844037;29;20062;-81
2021/08/24 02:12:23;;;;;;;5.28;3.00;;;16.30;91.90;;;;;;4845100;29;20056;-82
2021/08/24 02:14:49;;;;;;;6.05;3.28;;;16.20;91.90;;;;;;4842654;29;20085;-82
2021/08/24 02:17:17;;;;;;;6.13;3.20;;;16.30;92.60;;;;;;4843859;29;20089;-82
2021/08/24 02:19:52;;;;;;;6.18;3.67;;;16.20;92.10;;;;;;4859247;29;20057;-83
2021/08/24 02:22:29;;;;;;;6.32;3.20;;;16.20;92.40;;;;;;4853490;29;20098;-82
2021/08/24 02:25:05;;;;;;;7.38;3.60;;;16.10;92.40;;;;;;4859802;29;20053;-83
2021/08/24 02:27:34;;;;;;;7.28;3.70;;;16.10;92.30;;;;;;4862998;29;20049;-84
2021/08/24 02:30:00;;;;;;;5.65;3.10;;;16.10;92.30;;;;;;4862100;29;20053;-83
2021/08/24 02:32:32;;;;;;;6.65;3.15;;;16.10;92.30;;;;;;4864298;29;20415;-82
2021/08/24 02:35:26;;;;;;;6.88;3.20;;;16.10;92.10;;;;;;4863050;29;20050;-82
2021/08/24 02:37:55;;;;;;;5.47;3.05;;;16.10;92.20;;;;;;4859156;29;20049;-82
2021/08/24 02:40:26;;;;;;;6.53;3.45;;;16.00;92.20;;;;;;4844420;29;20133;-82
2021/08/24 02:43:15;;;;;;;6.32;3.55;;;16.00;92.30;;;;;;4845079;29;20097;-83
2021/08/24 02:45:45;;;;;;;6.30;3.28;;;16.00;92.30;;;;;;4844792;29;20046;-83
2021/08/24 02:48:13;;;;;;;7.05;3.67;;;16.00;92.50;;;;;;4844678;29;20058;-83
2021/08/24 02:50:41;;;;;;;7.35;3.13;;;16.00;92.60;;;;;;4845358;29;20525;-83
2021/08/24 02:53:06;;;;;;;5.85;3.30;;;16.00;92.50;;;;;;4845679;29;20046;-82
2021/08/24 02:55:32;;;;;;;6.82;3.42;;;15.90;92.40;;;;;;4842738;29;20057;-82
2021/08/24 02:57:58;;;;;;;6.10;3.15;;;15.90;92.40;;;;;;4842937;29;20411;-84
2021/08/24 03:00:23;;;;;;;6.55;3.55;;;15.90;92.20;;;;;;4844227;29;20058;-83
2021/08/24 03:02:49;;;;;;;7.93;3.92;;;15.90;92.10;;;;;;4843541;29;20050;-82
2021/08/24 03:05:15;;;;;;;7.10;2.92;;;15.80;91.90;;;;;;4844502;29;20514;-82
2021/08/24 03:07:41;;;;;;;6.32;3.13;;;15.80;91.60;;;;;;4843468;29;20057;-82
2021/08/24 03:10:22;;;;;;;6.75;3.20;;;15.80;91.30;;;;;;4843597;29;20102;-83
2021/08/24 03:13:10;;;;;;;6.55;3.50;;;15.70;91.60;;;;;;4842318;29;20053;-82
2021/08/24 03:15:57;;;;;;;6.70;3.10;;;15.70;91.30;;;;;;4843488;29;20510;-82
2021/08/24 03:18:44;;;;;;;7.28;3.35;;;15.70;91.70;;;;;;4842478;29;20062;-82
2021/08/24 03:21:14;;;;;;;6.57;3.00;;;15.70;91.60;;;;;;4852653;29;20128;-82
2021/08/24 03:23:42;;;;;;;7.32;3.10;;;15.70;92.00;;;;;;4861788;29;20053;-82
2021/08/24 03:26:08;;;;;;;6.22;3.53;;;15.60;92.20;;;;;;4855885;29;20118;-82
2021/08/24 03:28:37;;;;;;;6.43;3.45;;;15.60;92.40;;;;;;4842255;29;20132;-83
2021/08/24 03:31:03;;;;;;;8.73;3.70;;;15.60;92.20;;;;;;4843690;29;20065;-83
2021/08/24 03:33:28;;;;;;;6.97;3.45;;;15.60;92.40;;;;;;4841424;29;20502;-82
2021/08/24 03:35:54;;;;;;;6.95;3.35;;;15.60;92.60;;;;;;4841990;29;20443;-83
2021/08/24 03:38:20;;;;;;;6.22;3.17;;;15.50;92.70;;;;;;4842352;29;20072;-83
2021/08/24 03:40:46;;;;;;;9.55;3.55;;;15.50;92.90;;;;;;4851012;29;20170;-82
2021/08/24 03:43:12;;;;;;;7.38;3.60;;;15.50;92.90;;;;;;4860642;29;20049;-82
2021/08/24 03:45:37;;;;;;;7.50;3.80;;;15.50;93.00;;;;;;4860388;29;20135;-83
2021/08/24 03:48:03;;;;;;;6.82;3.50;;;15.50;92.80;;;;;;4859814;29;20049;-83
2021/08/24 03:50:29;;;;;;;6.25;2.95;;;15.50;92.70;;;;;;4862034;29;20081;-82
2021/08/24 03:52:54;;;;;;;6.07;3.17;;;15.50;92.50;;;;;;4859471;29;20053;-82
2021/08/24 03:55:20;;;;;;;8.43;3.45;;;15.50;92.20;;;;;;4861089;29;20053;-82
2021/08/24 03:57:45;;;;;;;4.90;3.20;;;15.50;92.20;;;;;;4860513;29;20053;-82
2021/08/24 04:00:12;;;;;;;7.38;3.50;;;15.50;92.30;;;;;;4859577;29;20049;-82
2021/08/24 04:02:37;;;;;;;6.55;3.10;;;15.40;92.40;;;;;;4860544;29;20049;-82
2021/08/24 04:05:03;;;;;;;6.55;3.17;;;15.40;92.40;;;;;;4858784;29;20056;-82
2021/08/24 04:07:30;;;;;;;6.40;3.20;;;15.40;92.60;;;;;;4859765;29;20079;-82
2021/08/24 04:09:56;;;;;;;9.35;3.65;;;15.40;92.60;;;;;;4861561;29;20473;-82
2021/08/24 04:12:23;;;;;;;5.85;3.25;;;15.40;92.30;;;;;;4861006;29;20081;-83
2021/08/24 04:14:49;;;;;;;6.72;2.95;;;15.40;92.50;;;;;;4859448;29;20510;-82
2021/08/24 04:17:14;;;;;;;6.10;3.38;;;15.30;92.40;;;;;;4861478;29;20057;-82
2021/08/24 04:19:40;;;;;;;6.32;3.17;;;15.30;92.70;;;;;;4859747;29;20053;-82
2021/08/24 04:22:11;;;;;;;5.97;3.00;;;15.30;92.30;;;;;;4860122;29;20068;-81
2021/08/24 04:24:37;;;;;;;4.85;2.70;;;15.30;92.40;;;;;;4861764;29;20131;-82
2021/08/24 04:27:03;;;;;;;6.30;2.88;;;15.20;92.30;;;;;;4860625;29;20056;-83
2021/08/24 04:29:29;;;;;;;5.75;3.10;;;15.30;92.40;;;;;;4860032;29;20080;-83
2021/08/24 04:31:56;;;;;;;4.97;2.60;;;15.20;92.00;;;;;;4861564;29;20125;-81
2021/08/24 04:34:21;;;;;;;7.10;3.03;;;15.20;92.00;;;;;;4860863;29;20064;-84
2021/08/24 04:36:47;;;;;;;6.60;3.00;;;15.20;92.30;;;;;;4858974;29;20038;-82
2021/08/24 04:39:12;;;;;;;8.25;3.05;;;15.20;92.40;;;;;;4862016;29;20435;-82
2021/08/24 04:41:38;;;;;;;5.30;2.97;;;15.20;92.30;;;;;;4859977;29;20505;-82
2021/08/24 04:44:04;;;;;;;5.53;2.95;;;15.20;92.50;;;;;;4860190;29;20053;-81
2021/08/24 04:46:29;;;;;;;6.60;3.20;;;15.10;92.50;;;;;;4860551;29;20133;-82
2021/08/24 04:48:55;;;;;;;6.32;2.70;;;15.10;92.70;;;;;;4861615;29;20048;-81
2021/08/24 04:51:21;;;;;;;6.18;2.90;;;15.10;92.90;;;;;;4859851;29;20050;-81
2021/08/24 04:53:47;;;;;;;5.00;2.67;;;15.10;92.80;;;;;;4860487;29;20045;-82
2021/08/24 04:56:13;;;;;;;6.47;3.00;;;15.10;92.70;;;;;;4859376;29;20513;-81
2021/08/24 04:58:38;;;;;;;6.03;2.80;;;15.10;92.80;;;;;;4860090;29;20092;-81
2021/08/24 05:01:04;;;;;;;6.72;2.63;;;15.10;92.70;;;;;;4859483;29;20049;-81
2021/08/24 05:03:30;;;;;;;7.03;2.80;;;15.10;92.80;;;;;;4859579;29;20145;-82
2021/08/24 05:05:56;;;;;;;7.68;2.72;;;15.10;93.00;;;;;;4858385;29;20423;-81
2021/08/24 05:08:22;;;;;;;6.65;2.83;;;15.10;92.80;;;;;;4856669;29;20042;-82
2021/08/24 05:10:47;;;;;;;5.70;3.00;;;15.10;92.80;;;;;;4858510;29;20053;-82
2021/08/24 05:13:13;;;;;;;5.95;3.08;;;15.00;92.70;;;;;;4860545;29;20072;-82
2021/08/24 05:15:39;;;;;;;6.60;3.08;;;15.00;92.90;;;;;;4859029;29;20178;-81
2021/08/24 05:18:04;;;;;;;6.38;2.72;;;15.00;93.00;;;;;;4858920;29;20136;-81
2021/08/24 05:20:30;;;;;;;5.60;2.50;;;15.00;93.20;;;;;;4864096;29;20064;-82
2021/08/24 05:22:56;;;;;;;6.65;2.88;;;15.00;92.80;;;;;;4861075;29;20050;-82
2021/08/24 05:25:22;;;;;;;7.25;2.85;;;15.00;92.60;;;;;;4857271;29;20542;-81
2021/08/24 05:27:48;;;;;;;5.57;2.90;;;15.00;92.70;;;;;;4863684;29;20054;-88
2021/08/24 05:30:20;;;;;;;5.35;2.70;;;15.00;92.60;;;;;;4864302;29;20049;-88
2021/08/24 05:32:46;;;;;;;5.15;2.53;;;15.00;92.80;;;;;;4864383;29;20543;-88
2021/08/24 05:35:12;;;;;;;5.47;2.75;;;15.00;92.60;;;;;;4865164;29;20050;-88
2021/08/24 05:37:38;;;;;;;5.82;2.92;;;15.00;92.60;;;;;;4863469;29;20049;-88
2021/08/24 05:40:04;;;;;;;5.55;2.40;;;15.00;92.50;;;;;;4863934;29;20442;-80
2021/08/24 05:42:30;;;;;;;6.10;2.83;;;15.00;92.50;;;;;;4862682;29;20389;-79
2021/08/24 05:44:57;;;;;;;4.78;2.40;;;14.90;92.50;;;;;;4864404;29;20053;-78
2021/08/24 05:47:24;;;;;;;4.95;2.45;;;14.90;92.40;;;;;;4863364;29;20041;-79
2021/08/24 05:49:49;;;;;;;4.93;2.65;;;14.90;92.30;;;;;;4862096;29;20479;-79
2021/08/24 05:52:15;;;;;;;4.80;2.60;;;14.90;92.60;;;;;;4859357;29;20109;-79
2021/08/24 05:54:40;;;;;;;6.55;3.10;;;14.90;92.80;;;;;;4860133;29;20045;-78
2021/08/24 05:57:06;;;;;;;9.98;3.92;;;14.90;92.30;;;;;;4862053;29;20050;-79
2021/08/24 05:59:36;;;;;;;5.50;2.35;;;14.90;92.50;;;;;;4861387;29;20100;-78
2021/08/24 06:02:03;;;;;;;5.53;2.60;;;14.90;92.20;;;;;;4862230;29;20406;-79
2021/08/24 06:04:29;;;;;;;5.45;3.10;;;14.90;92.20;;;;;;4862777;29;20471;-78
2021/08/24 06:06:55;;;;;;;7.22;3.35;;;15.00;92.30;;;;;;4861645;29;20053;-78
2021/08/24 06:09:20;;;;;;;7.80;3.80;;;15.00;92.50;;;;;;4863737;29;20401;-79
2021/08/24 06:11:50;;;;;;;8.23;3.42;;;15.00;92.90;;;;;;4861918;29;20463;-79
2021/08/24 06:14:17;;;;;;;5.32;2.88;;;15.00;93.10;;;;;;4860408;29;20060;-78
2021/08/24 06:16:43;;;;;;;6.55;3.10;;;15.10;93.00;;;;;;4862350;29;20041;-79
2021/08/24 06:19:09;;;;;;;8.15;3.95;;;15.10;93.50;;;;;;4861346;29;20486;-78
2021/08/24 06:21:37;;;;;;;10.50;3.92;;;15.20;93.30;;;;;;4860600;29;20046;-78
2021/08/24 06:24:04;;;;;;;8.55;3.47;;;15.20;93.30;;;;;;4861716;29;20053;-78
2021/08/24 06:26:29;;;;;;;7.00;3.35;;;15.30;93.30;;;;;;4866433;29;20402;-77
2021/08/24 06:28:55;;;;;;;10.38;3.15;;;15.30;93.00;;;;;;4879603;29;20097;-78
2021/08/24 06:31:24;;;;;;;7.50;3.60;;;15.30;92.90;;;;;;4881599;29;20045;-78
2021/08/24 06:33:51;;;;;;;5.88;2.85;;;15.40;92.90;;;;;;4867128;29;20494;-79
2021/08/24 06:36:17;;;;;;;7.45;3.42;;;15.40;92.90;;;;;;4859818;29;20127;-79
2021/08/24 06:38:44;;;;;;;12.35;3.80;;;15.50;93.00;;;;;;4862408;29;20077;-79
2021/08/24 06:41:10;;;;;;;5.97;2.60;;;15.50;93.40;;;;;;4850866;29;20042;-78
2021/08/24 06:43:36;;;;;;;10.80;3.10;;;15.60;93.20;;;;;;4843561;29;20060;-79
2021/08/24 06:46:02;;;;;;;6.32;2.60;;;15.70;93.10;;;;;;4843338;29;20053;-79
2021/08/24 06:48:28;;;;;;;8.10;2.72;;;15.70;92.80;;;;;;4843445;29;20050;-79
2021/08/24 06:50:54;;;;;;;6.50;3.00;;;15.80;92.90;;;;;;4844316;29;20046;-78
2021/08/24 06:53:19;;;;;;;6.45;2.70;;;15.90;93.00;;;;;;4844478;29;20579;-79
2021/08/24 06:55:45;;;;;;;5.63;2.60;;;16.00;92.90;;;;;;4844921;29;20049;-79
2021/08/24 06:58:12;;;;;;;7.22;2.47;;;16.00;92.80;;;;;;4851077;29;20060;-79
2021/08/24 07:00:38;;;;;;;6.50;2.75;;;16.10;92.50;;;;;;4847804;29;20134;-78
2021/08/24 07:03:05;;;;;;;5.88;2.53;;;16.10;92.30;;;;;;4842201;29;20065;-79
2021/08/24 07:05:33;;;;;;;6.70;2.83;;;16.10;92.30;;;;;;4842650;29;20053;-81
2021/08/24 07:07:59;;;;;;;7.60;2.80;;;16.20;92.20;;;;;;4847441;29;20144;-81
2021/08/24 07:10:26;;;;;;;8.25;2.97;;;16.30;92.20;;;;;;4854985;29;20132;-81
2021/08/24 07:12:52;;;;;;;6.07;2.53;;;16.30;92.20;;;;;;4861896;29;20475;-81
2021/08/24 07:15:21;;;;;;;6.78;2.67;;;16.40;92.20;;;;;;4861514;29;20423;-81
2021/08/24 07:17:51;;;;;;;7.60;2.85;;;16.40;92.20;;;;;;4859693;29;20131;-80
2021/08/24 07:20:18;;;;;;;8.13;3.00;;;16.50;92.20;;;;;;4860227;29;20065;-79
2021/08/24 07:22:44;;;;;;;6.28;2.50;;;16.60;92.30;;;;;;4860466;29;20463;-79
2021/08/24 07:25:13;;;;;;;6.43;2.38;;;16.70;92.00;;;;;;4859515;29;20100;-79
2021/08/24 07:27:39;;;;;;;9.52;3.50;;;16.70;92.10;;;;;;4850472;29;20446;-79
2021/08/24 07:30:05;;;;;;;6.35;2.90;;;16.80;92.50;;;;;;4873171;29;20049;-79
2021/08/24 07:32:31;;;;;;;7.65;2.60;;;16.80;92.40;;;;;;4853037;29;20077;-79
2021/08/24 07:34:57;;;;;;;6.85;2.95;;;16.90;92.30;;;;;;4857710;29;20490;-80
2021/08/24 07:37:22;;;;;;;4.63;2.28;;;17.00;92.30;;;;;;4858486;29;20041;-79
2021/08/24 07:39:48;;;;;;;8.50;2.95;;;17.00;92.10;;;;;;4841102;29;20095;-79
2021/08/24 07:42:14;;;;;;;6.63;3.20;;;17.10;92.20;;;;;;4844837;29;20046;-80
2021/08/24 07:44:40;;;;;;;8.82;3.17;;;17.20;92.40;;;;;;4861264;29;20076;-79
2021/08/24 07:47:06;;;;;;;6.53;2.80;;;17.30;92.40;;;;;;4864255;29;20061;-80
2021/08/24 07:49:36;;;;;;;6.55;2.63;;;17.40;92.40;;;;;;4843871;29;20046;-79
2021/08/24 07:52:05;;;;;;;11.48;3.17;;;17.50;92.20;;;;;;4841975;29;20077;-80
2021/08/24 07:54:30;;;;;;;8.43;2.90;;;17.50;92.40;;;;;;4856080;29;20046;-82
2021/08/24 07:56:56;;;;;;;9.27;2.75;;;17.60;92.40;;;;;;4860547;29;20053;-80
2021/08/24 07:59:22;;;;;;;8.20;3.08;;;17.70;92.20;;;;;;4857412;29;20506;-80
2021/08/24 08:01:47;;;;;;;9.35;3.03;;;17.80;92.10;;;;;;4854501;29;20073;-80
2021/08/24 08:04:13;;;;;;;5.72;2.67;;;17.90;92.30;;;;;;4860682;29;20136;-79
2021/08/24 08:06:39;;;;;;;8.20;2.20;;;17.90;92.00;;;;;;4858873;29;20046;-80
2021/08/24 08:09:06;;;;;;;7.20;2.35;;;18.00;91.90;;;;;;4861284;29;20049;-80
2021/08/24 08:11:34;;;;;;;8.05;2.50;;;18.10;91.80;;;;;;4859545;29;20129;-80
2021/08/24 08:14:00;;;;;;;8.18;2.67;;;18.10;91.80;;;;;;4859155;29;20093;-80
2021/08/24 08:16:26;;;;;;;7.05;2.60;;;18.20;91.80;;;;;;4860061;29;20045;-80
2021/08/24 08:18:52;;;;;;;7.57;2.50;;;18.30;91.90;;;;;;4859404;29;20461;-81
2021/08/24 08:21:21;;;;;;;6.03;2.40;;;18.40;91.60;;;;;;4859366;29;20058;-81
2021/08/24 08:23:47;;;;;;;6.43;2.20;;;18.50;91.70;;;;;;4859384;29;20375;-81
2021/08/24 08:26:13;;;;;;;6.22;2.60;;;18.50;91.60;;;;;;4860404;29;20057;-80
2021/08/24 08:28:38;;;;;;;6.47;2.35;;;18.60;91.60;;;;;;4859025;29;20141;-80
2021/08/24 08:31:04;;;;;;;8.07;2.08;;;18.70;91.50;;;;;;4859775;29;20042;-81
2021/08/24 08:33:33;;;;;;;10.52;2.30;;;18.80;91.20;;;;;;4859703;29;20091;-79
2021/08/24 08:35:59;;;;;;;7.50;2.50;;;18.90;91.20;;;;;;4858027;29;20100;-81
2021/08/24 08:38:24;;;;;;;5.38;1.90;;;18.90;91.10;;;;;;4859616;29;20057;-79
2021/08/24 08:40:56;;;;;;;7.80;2.25;;;19.00;91.00;;;;;;4859551;29;20521;-81
2021/08/24 08:43:39;;;;;;;5.47;2.10;;;19.10;90.80;;;;;;4859982;29;20050;-81
2021/08/24 08:46:31;;;;;;;5.13;2.00;;;19.20;90.90;;;;;;4852328;29;20102;-81
2021/08/24 08:49:20;;;;;;;6.97;1.98;;;19.20;90.90;;;;;;4858002;29;20113;-81
2021/08/24 08:52:15;;;;;;;6.70;2.30;;;19.30;90.60;;;;;;4841790;29;20499;-80
2021/08/24 08:54:59;;;;;;;6.70;2.13;;;19.40;90.70;;;;;;4842720;29;20134;-80
2021/08/24 08:57:31;;;;;;;5.97;1.98;;;19.40;90.40;;;;;;4851877;29;20053;-82
2021/08/24 08:59:59;;;;;;;7.75;2.15;;;19.50;90.40;;;;;;4851792;29;20098;-82
2021/08/24 09:02:35;;;;;;;6.38;2.15;;;19.50;89.70;;;;;;4856883;29;20063;-82
2021/08/24 09:05:05;;;;;;;5.38;2.28;;;19.60;90.10;;;;;;4858511;29;20045;-81
2021/08/24 09:07:55;;;;;;;9.77;2.40;;;19.60;90.10;;;;;;4858949;29;20120;-82
2021/08/24 09:10:30;;;;;;;7.63;2.30;;;19.70;89.40;;;;;;4858792;29;20120;-81
2021/08/24 09:13:04;;;;;;;5.35;2.10;;;19.70;89.40;;;;;;4857767;29;20146;-81
2021/08/24 09:15:39;;;;;;;6.57;2.25;;;19.80;90.00;;;;;;4857850;29;20049;-81
2021/08/24 09:18:10;;;;;;;7.15;2.58;;;19.80;89.30;;;;;;4854487;29;20053;-81
2021/08/24 09:20:43;;;;;;;5.38;2.13;;;19.90;89.50;;;;;;4857521;29;20085;-81
2021/08/24 09:23:12;;;;;;;5.78;2.22;;;20.00;90.00;;;;;;4859204;29;20100;-81
2021/08/24 09:26:05;;;;;;;6.70;2.42;;;20.10;89.90;;;;;;4853663;29;20042;-83
2021/08/24 09:28:33;;;;;;;7.10;2.30;;;20.20;89.70;;;;;;4840864;29;20463;-83
2021/08/24 09:31:00;;;;;;;5.75;2.15;;;20.20;90.00;;;;;;4847068;29;20461;-82
2021/08/24 09:33:28;;;;;;;4.53;2.03;;;20.30;88.70;;;;;;4844707;29;20052;-83
2021/08/24 09:35:55;;;;;;;5.13;2.10;;;20.30;89.30;;;;;;4845617;29;20128;-83
2021/08/24 09:38:20;;;;;;;5.38;1.80;;;20.40;88.70;;;;;;4846336;29;20053;-83
2021/08/24 09:40:52;;;;;;;5.55;1.90;;;20.50;89.00;;;;;;4847155;29;20041;-82
2021/08/24 09:43:28;;;;;;;4.78;2.00;;;20.50;89.50;;;;;;4844817;29;20401;-82
2021/08/24 09:46:04;;;;;;;5.32;2.00;;;20.60;90.00;;;;;;4846494;29;20132;-82
2021/08/24 09:48:46;;;;;;;5.82;1.83;;;20.70;89.80;;;;;;4849950;29;20136;-83
2021/08/24 09:51:24;;;;;;;5.85;2.10;;;20.70;88.20;;;;;;4845913;29;20095;-82
2021/08/24 09:53:57;;;;;;;6.40;2.00;;;20.70;88.50;;;;;;4845272;29;20097;-82
2021/08/24 09:56:27;;;;;;;6.68;2.10;;;20.80;88.40;;;;;;4843448;29;20085;-81
2021/08/24 09:58:54;;;;;;;6.05;2.00;;;20.80;86.50;;;;;;4842167;29;20923;-82
2021/08/24 10:01:20;;;;;;;8.30;2.00;;;20.80;85.70;;;;;;4848449;29;20122;-82
2021/08/24 10:04:02;;;;;;;4.75;2.08;;;20.90;86.70;;;;;;4841134;29;20137;-84
2021/08/24 10:06:34;;;;;;;4.97;1.97;;;20.90;86.70;;;;;;4844027;29;20064;-84
2021/08/24 10:09:23;;;;;;;4.78;2.08;;;21.00;86.80;;;;;;4852419;29;20049;-83
2021/08/24 10:11:49;;;;;;;5.05;1.95;;;21.00;87.00;;;;;;4855328;29;20049;-83
2021/08/24 10:14:22;;;;;;;6.05;2.00;;;21.10;87.90;;;;;;4852769;29;20049;-84
2021/08/24 10:16:50;;;;;;;;;;;21.10;87.80;;;;;;4861521;29;20042;-84
2021/08/24 10:19:29;;;;;;;7.13;1.80;;;21.10;88.10;;;;;;4860849;29;19932;-85
2021/08/24 10:22:05;;;;;;;6.60;2.17;;;21.20;88.20;;;;;;4866167;29;20052;-82
2021/08/24 10:24:52;;;;;;;6.75;2.00;;;21.20;88.10;;;;;;4863904;29;20049;-82
2021/08/24 10:27:32;;;;;;;5.97;2.10;;;21.30;88.00;;;;;;4859520;29;20053;-83
2021/08/24 10:30:02;;;;;;;6.38;2.05;;;21.40;87.90;;;;;;4844639;29;20069;-86
2021/08/24 10:32:37;;;;;;;9.75;2.30;;;21.50;88.20;;;;;;4857881;29;20060;-87
2021/08/24 10:35:16;;;;;;;5.18;2.22;;;21.50;87.60;;;;;;4861871;29;20106;-81
2021/08/24 10:37:47;;;;;;;5.40;2.20;;;21.60;87.40;;;;;;4862849;29;20054;-81
2021/08/24 10:40:42;;;;;;;6.60;2.30;;;21.70;87.70;;;;;;4861932;29;20050;-81
2021/08/24 10:43:10;;;;;;;6.72;2.15;;;21.70;87.10;;;;;;4856471;29;20093;-81
2021/08/24 10:45:41;;;;;;;5.43;2.10;;;21.80;86.60;;;;;;4857015;29;20046;-81
2021/08/24 10:48:19;;;;;;;5.05;2.00;;;21.80;84.20;;;;;;4857116;29;20863;-81
2021/08/24 10:51:06;;;;;;;4.55;2.00;;;21.90;85.00;;;;;;4880569;29;20117;-80
2021/08/24 10:53:53;;;;;;;5.47;2.10;;;21.90;84.40;;;;;;4854937;29;20054;-81
2021/08/24 10:56:31;;;;;;;5.30;2.08;;;22.00;84.50;;;;;;4855041;29;20053;-82
2021/08/24 10:59:07;;;;;;;4.05;2.03;;;22.10;83.40;;;;;;4851031;29;20061;-83
2021/08/24 11:01:50;;;;;;;5.88;2.10;;;22.10;83.00;;;;;;4846989;29;20391;-82
2021/08/24 11:04:26;;;;;;;4.68;1.90;;;22.10;82.80;;;;;;4860550;29;20117;-83
2021/08/24 11:07:00;;;;;;;6.22;2.20;;;22.20;83.70;;;;;;4850584;29;20100;-82
2021/08/24 11:09:45;;;;;;;5.95;2.08;;;22.20;85.00;;;;;;4861441;29;20052;-82
2021/08/24 11:12:29;;;;;;;4.93;2.00;;;22.30;85.30;;;;;;4861653;29;20423;-82
2021/08/24 11:15:25;;;;;;;5.45;1.90;;;22.40;86.00;;;;;;4860962;29;20053;-84
2021/08/24 11:18:10;;;;;;;6.63;2.13;;;22.40;83.20;;;;;;4858850;29;20101;-84
2021/08/24 11:20:48;;;;;;;6.88;1.90;;;22.40;83.80;;;;;;4863287;29;20088;-83
2021/08/24 11:23:51;;;;;;;3.92;1.85;;;22.50;82.20;;;;;;4860862;29;20094;-83
2021/08/24 11:26:30;;;;;;;6.13;2.30;;;22.50;83.50;;;;;;4845630;29;20049;-80
2021/08/24 11:29:07;;;;;;;4.97;2.10;;;22.50;83.80;;;;;;4860835;29;20146;-82
2021/08/24 11:31:58;;;;;;;4.30;2.10;;;22.60;82.40;;;;;;4858318;29;20399;-82
2021/08/24 11:34:29;;;;;;;5.38;2.05;;;22.70;84.20;;;;;;4858684;29;20128;-82
2021/08/24 11:37:13;;;;;;;4.18;1.90;;;22.80;84.00;;;;;;4856139;29;20049;-82
2021/08/24 11:39:55;;;;;;;4.65;2.00;;;22.80;83.10;;;;;;4849379;29;20514;-82
2021/08/24 11:42:30;;;;;;;6.07;1.90;;;22.80;83.70;;;;;;4860350;29;20430;-82
2021/08/24 11:44:59;;;;;;;7.13;2.20;;;22.90;83.70;;;;;;4859493;29;20050;-82
2021/08/24 11:47:44;;;;;;;8.82;2.20;;;23.00;82.50;;;;;;4847041;29;20530;-82
2021/08/24 11:50:15;;;;;;;5.90;2.20;;;23.00;80.50;;;;;;4843899;29;20049;-82
2021/08/24 11:52:48;;;;;;;4.07;2.00;;;23.00;78.50;;;;;;4841736;29;20053;-81
2021/08/24 11:55:19;;;;;;;4.40;1.95;;;23.00;79.60;;;;;;4846012;29;20050;-82
2021/08/24 11:58:25;;;;;;;6.18;2.20;;;23.00;81.50;;;;;;4847353;29;20052;-83
2021/08/24 12:00:54;;;;;;;5.20;1.88;;;23.10;81.40;;;;;;4879432;29;20129;-82
2021/08/24 12:03:21;;;;;;;5.78;1.95;;;23.10;82.70;;;;;;4867473;29;20038;-82
2021/08/24 12:06:11;;;;;;;4.30;2.00;;;23.20;83.40;;;;;;4856685;29;20049;-82
2021/08/24 12:08:51;;;;;;;4.30;1.80;;;23.30;84.20;;;;;;4858153;29;20045;-82
2021/08/24 12:11:24;;;;;;;3.97;1.85;;;23.30;84.00;;;;;;4859272;29;20057;-83
2021/08/24 12:13:52;;;;;;;8.55;2.53;;;23.40;84.50;;;;;;4858467;29;20050;-83
2021/08/24 12:16:21;;;;;;;5.00;1.90;;;23.40;81.80;;;;;;4860286;29;20402;-83
2021/08/24 12:19:05;;;;;;;6.18;2.50;;;23.40;82.60;;;;;;4859671;29;20057;-82
2021/08/24 12:21:37;;;;;;;8.23;2.70;;;23.40;79.20;;;;;;4859092;29;20054;-83
2021/08/24 12:24:24;;;;;;;6.63;2.10;;;23.30;79.10;;;;;;4859478;29;20037;-83
2021/08/24 12:26:51;;;;;;;4.55;1.77;;;23.40;80.10;;;;;;4859016;29;20049;-81
2021/08/24 12:29:34;;;;;;;5.97;2.05;;;23.40;80.60;;;;;;4859737;29;20061;-82
2021/08/24 12:32:11;;;;;;;5.13;2.10;;;23.50;82.10;;;;;;4860241;29;20161;-82
2021/08/24 12:34:38;;;;;;;5.35;1.95;;;23.50;82.00;;;;;;4856783;29;20301;-84
2021/08/24 12:37:19;;;;;;;5.30;2.03;;;23.60;82.20;;;;;;4857692;29;20060;-81
2021/08/24 12:39:47;;;;;;;4.63;1.73;;;23.70;82.60;;;;;;4858948;29;20113;-82
2021/08/24 12:42:24;;;;;;;4.93;2.00;;;23.70;82.80;;;;;;4858110;29;20042;-84
2021/08/24 12:44:57;;;;;;;4.80;2.10;;;23.70;81.80;;;;;;4856950;29;20056;-83
2021/08/24 12:47:32;;;;;;;7.10;2.30;;;23.70;79.00;;;;;;4841397;29;20486;-84
2021/08/24 12:50:06;;;;;;;4.00;1.90;;;23.80;77.10;;;;;;4842067;29;20053;-82
2021/08/24 12:52:36;;;;;;;5.82;2.13;;;23.80;78.70;;;;;;4847752;29;20046;-82
2021/08/24 12:55:31;;;;;;;4.32;2.30;;;23.80;77.20;;;;;;4859401;29;20049;-82
2021/08/24 12:58:24;;;;;;;4.55;1.92;;;23.90;79.80;;;;;;4859203;29;20088;-82
2021/08/24 13:01:15;;;;;;;4.13;1.80;;;23.80;80.90;;;;;;4853608;29;20080;-81
2021/08/24 13:04:07;;;;;;;4.57;2.10;;;23.90;80.60;;;;;;4840490;29;20518;-81
2021/08/24 13:07:14;;;;;;;4.05;2.03;;;23.90;76.10;;;;;;4841373;29;20082;-83
2021/08/24 13:09:41;;;;;;;4.72;1.95;;;23.90;79.80;;;;;;4852203;29;20057;-82
2021/08/24 13:12:15;;;;;;;5.45;2.03;;;24.00;80.00;;;;;;4845595;29;20057;-81